sensor_id;sensor_type;location;lat;lon;timestamp;pressure;altitude;pressure_sealevel;temperature;humidity
47522;BME280;32291;52.010;4.446;2023-05-01T00:00:35;78968.44;;;-144.67;100.00
47522;BME280;32291;52.010;4.446;2023-05-01T00:01:38;78959.88;;;-144.67;100.00
47522;BME280;32291;52.010;4.446;2023-05-01T00:02:39;78951.31;;;-144.67;100.00
47522;BME280;32291;52.010;4.446;2023-05-01T00:03:41;78942.72;;;-144.67;100.00
47522;BME280;32291;52.010;4.446;2023-05-01T00:04:43;78934.16;;;-144.67;100.00
47522;BME280;32291;52.010;4.446;2023-05-01T00:05:45;78934.16;;;-144.67;100.00
47522;BME280;32291;52.010;4.446;2023-05-01T00:06:48;78934.16;;;-144.67;100.00
47522;BME280;32291;52.010;4.446;2023-05-01T00:07:49;78929.88;;;-144.67;100.00
47522;BME280;32291;52.010;4.446;2023-05-01T00:08:51;78925.59;;;-144.67;100.00
47522;BME280;32291;52.010;4.446;2023-05-01T00:09:53;78934.16;;;-144.67;100.00
47522;BME280;32291;52.010;4.446;2023-05-01T00:10:55;78934.16;;;-144.67;100.00
47522;BME280;32291;52.010;4.446;2023-05-01T00:11:57;78929.88;;;-144.67;100.00
47522;BME280;32291;52.010;4.446;2023-05-01T00:12:59;78923.47;;;-144.67;100.00
47522;BME280;32291;52.010;4.446;2023-05-01T00:14:00;78923.47;;;-144.67;100.00
47522;BME280;32291;52.010;4.446;2023-05-01T00:15:02;78929.88;;;-144.67;100.00
47522;BME280;32291;52.010;4.446;2023-05-01T00:16:11;78921.31;;;-144.67;100.00
47522;BME280;32291;52.010;4.446;2023-05-01T00:17:12;78925.59;;;-144.67;100.00
47522;BME280;32291;52.010;4.446;2023-05-01T00:18:15;78923.47;;;-144.67;100.00
47522;BME280;32291;52.010;4.446;2023-05-01T00:19:17;78921.31;;;-144.67;100.00
47522;BME280;32291;52.010;4.446;2023-05-01T00:20:19;78917.03;;;-144.67;100.00
47522;BME280;32291;52.010;4.446;2023-05-01T00:21:21;78910.63;;;-144.67;100.00
47522;BME280;32291;52.010;4.446;2023-05-01T00:22:23;78912.75;;;-144.67;100.00
47522;BME280;32291;52.010;4.446;2023-05-01T00:23:25;78908.47;;;-144.67;100.00
47522;BME280;32291;52.010;4.446;2023-05-01T00:24:26;78904.19;;;-144.67;100.00
47522;BME280;32291;52.010;4.446;2023-05-01T00:25:28;78897.75;;;-144.67;100.00
47522;BME280;32291;52.010;4.446;2023-05-01T00:26:29;78891.34;;;-144.67;100.00
47522;BME280;32291;52.010;4.446;2023-05-01T00:27:32;78895.63;;;-144.67;100.00
47522;BME280;32291;52.010;4.446;2023-05-01T00:28:34;78887.06;;;-144.67;100.00
47522;BME280;32291;52.010;4.446;2023-05-01T00:29:36;78891.34;;;-144.67;100.00
47522;BME280;32291;52.010;4.446;2023-05-01T00:30:38;78880.63;;;-144.67;100.00
47522;BME280;32291;52.010;4.446;2023-05-01T00:31:40;78882.78;;;-144.67;100.00
47522;BME280;32291;52.010;4.446;2023-05-01T00:32:42;78869.94;;;-144.67;100.00
47522;BME280;32291;52.010;4.446;2023-05-01T00:33:44;78872.06;;;-144.67;100.00
47522;BME280;32291;52.010;4.446;2023-05-01T00:34:46;78874.22;;;-144.67;100.00
47522;BME280;32291;52.010;4.446;2023-05-01T00:35:48;78878.50;;;-144.67;100.00
47522;BME280;32291;52.010;4.446;2023-05-01T00:36:51;78869.94;;;-144.67;100.00
47522;BME280;32291;52.010;4.446;2023-05-01T00:37:53;78869.94;;;-144.67;100.00
47522;BME280;32291;52.010;4.446;2023-05-01T00:38:55;78869.94;;;-144.67;100.00
47522;BME280;32291;52.010;4.446;2023-05-01T00:39:57;78865.66;;;-144.67;100.00
47522;BME280;32291;52.010;4.446;2023-05-01T00:40:59;78859.22;;;-144.67;100.00
47522;BME280;32291;52.010;4.446;2023-05-01T00:42:01;78857.06;;;-144.67;100.00
47522;BME280;32291;52.010;4.446;2023-05-01T00:43:02;78852.78;;;-144.67;100.00
47522;BME280;32291;52.010;4.446;2023-05-01T00:44:05;78848.50;;;-144.67;100.00
47522;BME280;32291;52.010;4.446;2023-05-01T00:45:07;78848.50;;;-144.67;100.00
47522;BME280;32291;52.010;4.446;2023-05-01T00:46:09;78839.94;;;-144.67;100.00
47522;BME280;32291;52.010;4.446;2023-05-01T00:47:11;78842.09;;;-144.67;100.00
47522;BME280;32291;52.010;4.446;2023-05-01T00:48:14;78833.53;;;-144.67;100.00
47522;BME280;32291;52.010;4.446;2023-05-01T00:49:16;78835.66;;;-144.67;100.00
47522;BME280;32291;52.010;4.446;2023-05-01T00:50:18;78831.38;;;-144.67;100.00
47522;BME280;32291;52.010;4.446;2023-05-01T00:51:20;78829.25;;;-144.67;100.00
47522;BME280;32291;52.010;4.446;2023-05-01T00:52:23;78824.97;;;-144.67;100.00
47522;BME280;32291;52.010;4.446;2023-05-01T00:53:26;78820.69;;;-144.67;100.00
47522;BME280;32291;52.010;4.446;2023-05-01T00:54:28;78818.53;;;-144.67;100.00
47522;BME280;32291;52.010;4.446;2023-05-01T00:55:32;78820.69;;;-144.67;100.00
47522;BME280;32291;52.010;4.446;2023-05-01T00:56:34;78814.25;;;-144.67;100.00
47522;BME280;32291;52.010;4.446;2023-05-01T00:57:38;78822.81;;;-144.67;100.00
47522;BME280;32291;52.010;4.446;2023-05-01T00:58:40;78820.69;;;-144.67;100.00
47522;BME280;32291;52.010;4.446;2023-05-01T00:59:42;78827.09;;;-144.67;100.00
47522;BME280;32291;52.010;4.446;2023-05-01T01:00:44;78822.81;;;-144.67;100.00
47522;BME280;32291;52.010;4.446;2023-05-01T01:01:45;78818.53;;;-144.67;100.00
47522;BME280;32291;52.010;4.446;2023-05-01T01:02:48;78822.81;;;-144.67;100.00
47522;BME280;32291;52.010;4.446;2023-05-01T01:03:49;78820.69;;;-144.67;100.00
47522;BME280;32291;52.010;4.446;2023-05-01T01:04:55;78824.97;;;-144.67;100.00
47522;BME280;32291;52.010;4.446;2023-05-01T01:07:46;78824.97;;;-144.67;100.00
47522;BME280;32291;52.010;4.446;2023-05-01T01:09:24;78829.25;;;-144.67;100.00
47522;BME280;32291;52.010;4.446;2023-05-01T01:10:47;78818.53;;;-144.67;100.00
47522;BME280;32291;52.010;4.446;2023-05-01T01:13:51;78822.81;;;-144.67;100.00
47522;BME280;32291;52.010;4.446;2023-05-01T01:17:10;78820.69;;;-144.67;100.00
47522;BME280;32291;52.010;4.446;2023-05-01T01:18:32;78820.69;;;-144.67;100.00
47522;BME280;32291;52.010;4.446;2023-05-01T01:21:30;78822.81;;;-144.67;100.00
47522;BME280;32291;52.010;4.446;2023-05-01T01:22:35;78818.53;;;-144.67;100.00
47522;BME280;32291;52.010;4.446;2023-05-01T01:29:21;78805.69;;;-144.67;100.00
47522;BME280;32291;52.010;4.446;2023-05-01T01:35:17;78797.13;;;-144.67;100.00
47522;BME280;32291;52.010;4.446;2023-05-01T01:36:35;78792.84;;;-144.67;100.00
47522;BME280;32291;52.010;4.446;2023-05-01T01:37:59;78788.56;;;-144.67;100.00
47522;BME280;32291;52.010;4.446;2023-05-01T01:39:29;78786.41;;;-144.67;100.00
47522;BME280;32291;52.010;4.446;2023-05-01T01:40:57;78786.41;;;-144.67;100.00
47522;BME280;32291;52.010;4.446;2023-05-01T01:42:07;78788.56;;;-144.67;100.00
47522;BME280;32291;52.010;4.446;2023-05-01T01:43:14;78786.41;;;-144.67;100.00
47522;BME280;32291;52.010;4.446;2023-05-01T01:44:36;78784.28;;;-144.67;100.00
47522;BME280;32291;52.010;4.446;2023-05-01T01:45:42;78780.00;;;-144.67;100.00
47522;BME280;32291;52.010;4.446;2023-05-01T01:46:48;78780.00;;;-144.67;100.00
47522;BME280;32291;52.010;4.446;2023-05-01T01:47:53;78784.28;;;-144.67;100.00
47522;BME280;32291;52.010;4.446;2023-05-01T01:48:58;78773.56;;;-144.67;100.00
47522;BME280;32291;52.010;4.446;2023-05-01T01:50:04;78773.56;;;-144.67;100.00
47522;BME280;32291;52.010;4.446;2023-05-01T01:51:14;78777.84;;;-144.67;100.00
47522;BME280;32291;52.010;4.446;2023-05-01T01:52:19;78780.00;;;-144.67;100.00
47522;BME280;32291;52.010;4.446;2023-05-01T01:53:24;78780.00;;;-144.67;100.00
47522;BME280;32291;52.010;4.446;2023-05-01T01:54:36;78784.28;;;-144.67;100.00
47522;BME280;32291;52.010;4.446;2023-05-01T01:55:42;78786.41;;;-144.67;100.00
47522;BME280;32291;52.010;4.446;2023-05-01T01:56:46;78784.28;;;-144.67;100.00
47522;BME280;32291;52.010;4.446;2023-05-01T01:57:50;78788.56;;;-144.67;100.00
47522;BME280;32291;52.010;4.446;2023-05-01T01:58:53;78790.69;;;-144.67;100.00
47522;BME280;32291;52.010;4.446;2023-05-01T01:59:56;78794.97;;;-144.67;100.00
47522;BME280;32291;52.010;4.446;2023-05-01T02:00:59;78788.56;;;-144.67;100.00
47522;BME280;32291;52.010;4.446;2023-05-01T02:02:03;78788.56;;;-144.67;100.00
47522;BME280;32291;52.010;4.446;2023-05-01T02:03:08;78799.25;;;-144.67;100.00
47522;BME280;32291;52.010;4.446;2023-05-01T02:04:15;78797.13;;;-144.67;100.00
47522;BME280;32291;52.010;4.446;2023-05-01T02:05:20;78803.53;;;-144.67;100.00
47522;BME280;32291;52.010;4.446;2023-05-01T02:06:23;78805.69;;;-144.67;100.00
47522;BME280;32291;52.010;4.446;2023-05-01T02:07:27;78809.97;;;-144.67;100.00
47522;BME280;32291;52.010;4.446;2023-05-01T02:08:30;78809.97;;;-144.67;100.00
47522;BME280;32291;52.010;4.446;2023-05-01T02:09:34;78809.97;;;-144.67;100.00
47522;BME280;32291;52.010;4.446;2023-05-01T02:10:39;78814.25;;;-144.67;100.00
47522;BME280;32291;52.010;4.446;2023-05-01T02:11:42;78812.09;;;-144.67;100.00
47522;BME280;32291;52.010;4.446;2023-05-01T02:12:47;78822.81;;;-144.67;100.00
47522;BME280;32291;52.010;4.446;2023-05-01T02:13:53;78822.81;;;-144.67;100.00
47522;BME280;32291;52.010;4.446;2023-05-01T02:14:58;78820.69;;;-144.67;100.00
47522;BME280;32291;52.010;4.446;2023-05-01T02:16:02;78824.97;;;-144.67;100.00
47522;BME280;32291;52.010;4.446;2023-05-01T02:17:06;78827.09;;;-144.67;100.00
47522;BME280;32291;52.010;4.446;2023-05-01T02:18:09;78827.09;;;-144.67;100.00
47522;BME280;32291;52.010;4.446;2023-05-01T02:19:14;78831.38;;;-144.67;100.00
47522;BME280;32291;52.010;4.446;2023-05-01T02:20:17;78820.69;;;-144.67;100.00
47522;BME280;32291;52.010;4.446;2023-05-01T02:21:20;78824.97;;;-144.67;100.00
47522;BME280;32291;52.010;4.446;2023-05-01T02:22:25;78827.09;;;-144.67;100.00
47522;BME280;32291;52.010;4.446;2023-05-01T02:23:28;78827.09;;;-144.67;100.00
47522;BME280;32291;52.010;4.446;2023-05-01T02:24:33;78831.38;;;-144.67;100.00
47522;BME280;32291;52.010;4.446;2023-05-01T02:25:38;78824.97;;;-144.67;100.00
47522;BME280;32291;52.010;4.446;2023-05-01T02:26:51;78831.38;;;-144.67;100.00
47522;BME280;32291;52.010;4.446;2023-05-01T02:28:02;78835.66;;;-144.67;100.00
47522;BME280;32291;52.010;4.446;2023-05-01T02:29:07;78831.38;;;-144.67;100.00
47522;BME280;32291;52.010;4.446;2023-05-01T02:30:11;78839.94;;;-144.67;100.00
47522;BME280;32291;52.010;4.446;2023-05-01T02:31:13;78831.38;;;-144.67;100.00
47522;BME280;32291;52.010;4.446;2023-05-01T02:32:15;78831.38;;;-144.67;100.00
47522;BME280;32291;52.010;4.446;2023-05-01T02:33:17;78839.94;;;-144.67;100.00
47522;BME280;32291;52.010;4.446;2023-05-01T02:34:18;78844.22;;;-144.67;100.00
47522;BME280;32291;52.010;4.446;2023-05-01T02:35:20;78839.94;;;-144.67;100.00
47522;BME280;32291;52.010;4.446;2023-05-01T02:36:21;78839.94;;;-144.67;100.00
47522;BME280;32291;52.010;4.446;2023-05-01T02:37:23;78837.81;;;-144.67;100.00
47522;BME280;32291;52.010;4.446;2023-05-01T02:38:25;78839.94;;;-144.67;100.00
47522;BME280;32291;52.010;4.446;2023-05-01T02:39:27;78835.66;;;-144.67;100.00
47522;BME280;32291;52.010;4.446;2023-05-01T02:40:29;78839.94;;;-144.67;100.00
47522;BME280;32291;52.010;4.446;2023-05-01T02:41:36;78842.09;;;-144.67;100.00
47522;BME280;32291;52.010;4.446;2023-05-01T02:42:44;78835.66;;;-144.67;100.00
47522;BME280;32291;52.010;4.446;2023-05-01T02:43:53;78842.09;;;-144.67;100.00
47522;BME280;32291;52.010;4.446;2023-05-01T02:45:02;78839.94;;;-144.67;100.00
47522;BME280;32291;52.010;4.446;2023-05-01T02:46:06;78835.66;;;-144.67;100.00
47522;BME280;32291;52.010;4.446;2023-05-01T02:47:11;78829.25;;;-144.67;100.00
47522;BME280;32291;52.010;4.446;2023-05-01T02:48:22;78827.09;;;-144.67;100.00
47522;BME280;32291;52.010;4.446;2023-05-01T02:49:26;78822.81;;;-144.67;100.00
47522;BME280;32291;52.010;4.446;2023-05-01T02:50:29;78818.53;;;-144.67;100.00
47522;BME280;32291;52.010;4.446;2023-05-01T02:51:32;78827.09;;;-144.67;100.00
47522;BME280;32291;52.010;4.446;2023-05-01T02:52:36;78814.25;;;-144.67;100.00
47522;BME280;32291;52.010;4.446;2023-05-01T02:53:39;78816.41;;;-144.67;100.00
47522;BME280;32291;52.010;4.446;2023-05-01T02:54:43;78814.25;;;-144.67;100.00
47522;BME280;32291;52.010;4.446;2023-05-01T02:55:46;78814.25;;;-144.67;100.00
47522;BME280;32291;52.010;4.446;2023-05-01T02:56:48;78818.53;;;-144.67;100.00
47522;BME280;32291;52.010;4.446;2023-05-01T02:57:50;78814.25;;;-144.67;100.00
47522;BME280;32291;52.010;4.446;2023-05-01T02:58:52;78816.41;;;-144.67;100.00
47522;BME280;32291;52.010;4.446;2023-05-01T02:59:53;78814.25;;;-144.67;100.00
47522;BME280;32291;52.010;4.446;2023-05-01T03:00:55;78809.97;;;-144.67;100.00
47522;BME280;32291;52.010;4.446;2023-05-01T03:01:57;78809.97;;;-144.67;100.00
47522;BME280;32291;52.010;4.446;2023-05-01T03:02:59;78814.25;;;-144.67;100.00
47522;BME280;32291;52.010;4.446;2023-05-01T03:04:00;78812.09;;;-144.67;100.00
47522;BME280;32291;52.010;4.446;2023-05-01T03:05:02;78807.81;;;-144.67;100.00
47522;BME280;32291;52.010;4.446;2023-05-01T03:06:04;78805.69;;;-144.67;100.00
47522;BME280;32291;52.010;4.446;2023-05-01T03:07:06;78809.97;;;-144.67;100.00
47522;BME280;32291;52.010;4.446;2023-05-01T03:08:08;78809.97;;;-144.67;100.00
47522;BME280;32291;52.010;4.446;2023-05-01T03:09:11;78801.41;;;-144.67;100.00
47522;BME280;32291;52.010;4.446;2023-05-01T03:10:13;78801.41;;;-144.67;100.00
47522;BME280;32291;52.010;4.446;2023-05-01T03:11:14;78805.69;;;-144.67;100.00
47522;BME280;32291;52.010;4.446;2023-05-01T03:12:16;78799.25;;;-144.67;100.00
47522;BME280;32291;52.010;4.446;2023-05-01T03:13:18;78797.13;;;-144.67;100.00
47522;BME280;32291;52.010;4.446;2023-05-01T03:14:19;78797.13;;;-144.67;100.00
47522;BME280;32291;52.010;4.446;2023-05-01T03:15:21;78801.41;;;-144.67;100.00
47522;BME280;32291;52.010;4.446;2023-05-01T03:16:22;78801.41;;;-144.67;100.00
47522;BME280;32291;52.010;4.446;2023-05-01T03:17:24;78805.69;;;-144.67;100.00
47522;BME280;32291;52.010;4.446;2023-05-01T03:18:27;78799.25;;;-144.67;100.00
47522;BME280;32291;52.010;4.446;2023-05-01T03:19:28;78801.41;;;-144.67;100.00
47522;BME280;32291;52.010;4.446;2023-05-01T03:20:31;78799.25;;;-144.67;100.00
47522;BME280;32291;52.010;4.446;2023-05-01T03:21:33;78797.13;;;-144.67;100.00
47522;BME280;32291;52.010;4.446;2023-05-01T03:22:34;78797.13;;;-144.67;100.00
47522;BME280;32291;52.010;4.446;2023-05-01T03:23:36;78801.41;;;-144.67;100.00
47522;BME280;32291;52.010;4.446;2023-05-01T03:24:38;78799.25;;;-144.67;100.00
47522;BME280;32291;52.010;4.446;2023-05-01T03:25:40;78797.13;;;-144.67;100.00
47522;BME280;32291;52.010;4.446;2023-05-01T03:26:41;78797.13;;;-144.67;100.00
47522;BME280;32291;52.010;4.446;2023-05-01T03:27:43;78799.25;;;-144.67;100.00
47522;BME280;32291;52.010;4.446;2023-05-01T03:28:45;78790.69;;;-144.67;100.00
47522;BME280;32291;52.010;4.446;2023-05-01T03:29:47;78792.84;;;-144.67;100.00
47522;BME280;32291;52.010;4.446;2023-05-01T03:30:50;78790.69;;;-144.67;100.00
47522;BME280;32291;52.010;4.446;2023-05-01T03:31:52;78792.84;;;-144.67;100.00
47522;BME280;32291;52.010;4.446;2023-05-01T03:32:54;78801.41;;;-144.67;100.00
47522;BME280;32291;52.010;4.446;2023-05-01T03:33:56;78797.13;;;-144.67;100.00
47522;BME280;32291;52.010;4.446;2023-05-01T03:34:57;78792.84;;;-144.67;100.00
47522;BME280;32291;52.010;4.446;2023-05-01T03:36:04;78792.84;;;-144.67;100.00
47522;BME280;32291;52.010;4.446;2023-05-01T03:37:06;78801.41;;;-144.67;100.00
47522;BME280;32291;52.010;4.446;2023-05-01T03:38:07;78797.13;;;-144.67;100.00
47522;BME280;32291;52.010;4.446;2023-05-01T03:39:09;78790.69;;;-144.67;100.00
47522;BME280;32291;52.010;4.446;2023-05-01T03:40:11;78786.41;;;-144.67;100.00
47522;BME280;32291;52.010;4.446;2023-05-01T03:41:14;78792.84;;;-144.67;100.00
47522;BME280;32291;52.010;4.446;2023-05-01T03:42:16;78790.69;;;-144.67;100.00
47522;BME280;32291;52.010;4.446;2023-05-01T03:43:18;78792.84;;;-144.67;100.00
47522;BME280;32291;52.010;4.446;2023-05-01T03:44:19;78786.41;;;-144.67;100.00
47522;BME280;32291;52.010;4.446;2023-05-01T03:45:21;78784.28;;;-144.67;100.00
47522;BME280;32291;52.010;4.446;2023-05-01T03:46:23;78784.28;;;-144.67;100.00
47522;BME280;32291;52.010;4.446;2023-05-01T03:47:25;78782.13;;;-144.67;100.00
47522;BME280;32291;52.010;4.446;2023-05-01T03:48:27;78775.72;;;-144.67;100.00
47522;BME280;32291;52.010;4.446;2023-05-01T03:49:29;78767.16;;;-144.67;100.00
47522;BME280;32291;52.010;4.446;2023-05-01T03:50:31;78769.28;;;-144.67;100.00
47522;BME280;32291;52.010;4.446;2023-05-01T03:51:33;78771.44;;;-144.67;100.00
47522;BME280;32291;52.010;4.446;2023-05-01T03:52:35;78762.84;;;-144.67;100.00
47522;BME280;32291;52.010;4.446;2023-05-01T03:53:37;78765.00;;;-144.67;100.00
47522;BME280;32291;52.010;4.446;2023-05-01T03:54:39;78760.72;;;-144.67;100.00
47522;BME280;32291;52.010;4.446;2023-05-01T03:55:41;78758.56;;;-144.67;100.00
47522;BME280;32291;52.010;4.446;2023-05-01T03:56:43;78762.84;;;-144.67;100.00
47522;BME280;32291;52.010;4.446;2023-05-01T03:57:45;78756.44;;;-144.67;100.00
47522;BME280;32291;52.010;4.446;2023-05-01T03:58:48;78758.56;;;-144.67;100.00
47522;BME280;32291;52.010;4.446;2023-05-01T03:59:50;78747.88;;;-144.67;100.00
47522;BME280;32291;52.010;4.446;2023-05-01T04:00:53;78756.44;;;-144.67;100.00
47522;BME280;32291;52.010;4.446;2023-05-01T04:01:57;78754.28;;;-144.67;100.00
47522;BME280;32291;52.010;4.446;2023-05-01T04:02:59;78754.28;;;-144.67;100.00
47522;BME280;32291;52.010;4.446;2023-05-01T04:04:01;78752.16;;;-144.67;100.00
47522;BME280;32291;52.010;4.446;2023-05-01T04:05:03;78743.59;;;-144.67;100.00
47522;BME280;32291;52.010;4.446;2023-05-01T04:06:04;78745.72;;;-144.67;100.00
47522;BME280;32291;52.010;4.446;2023-05-01T04:07:06;78743.59;;;-144.67;100.00
47522;BME280;32291;52.010;4.446;2023-05-01T04:08:08;78737.16;;;-144.67;100.00
47522;BME280;32291;52.010;4.446;2023-05-01T04:09:09;78737.16;;;-144.67;100.00
47522;BME280;32291;52.010;4.446;2023-05-01T04:10:11;78737.16;;;-144.67;100.00
47522;BME280;32291;52.010;4.446;2023-05-01T04:11:13;78726.47;;;-144.67;100.00
47522;BME280;32291;52.010;4.446;2023-05-01T04:12:15;78726.47;;;-144.67;100.00
47522;BME280;32291;52.010;4.446;2023-05-01T04:13:17;78726.47;;;-144.67;100.00
47522;BME280;32291;52.010;4.446;2023-05-01T04:14:19;78715.75;;;-144.67;100.00
47522;BME280;32291;52.010;4.446;2023-05-01T04:15:21;78722.19;;;-144.67;100.00
47522;BME280;32291;52.010;4.446;2023-05-01T04:16:23;78713.63;;;-144.67;100.00
47522;BME280;32291;52.010;4.446;2023-05-01T04:17:26;78715.75;;;-144.67;100.00
47522;BME280;32291;52.010;4.446;2023-05-01T04:18:27;78709.31;;;-144.67;100.00
47522;BME280;32291;52.010;4.446;2023-05-01T04:19:29;78711.47;;;-144.67;100.00
47522;BME280;32291;52.010;4.446;2023-05-01T04:20:30;78711.47;;;-144.67;100.00
47522;BME280;32291;52.010;4.446;2023-05-01T04:21:33;78711.47;;;-144.67;100.00
47522;BME280;32291;52.010;4.446;2023-05-01T04:22:36;78711.47;;;-144.67;100.00
47522;BME280;32291;52.010;4.446;2023-05-01T04:23:37;78702.91;;;-144.67;100.00
47522;BME280;32291;52.010;4.446;2023-05-01T04:24:39;78702.91;;;-144.67;100.00
47522;BME280;32291;52.010;4.446;2023-05-01T04:25:40;78698.63;;;-144.67;100.00
47522;BME280;32291;52.010;4.446;2023-05-01T04:26:42;78702.91;;;-144.67;100.00
47522;BME280;32291;52.010;4.446;2023-05-01T04:27:43;78702.91;;;-144.67;100.00
47522;BME280;32291;52.010;4.446;2023-05-01T04:28:45;78698.63;;;-144.67;100.00
47522;BME280;32291;52.010;4.446;2023-05-01T04:29:47;78705.03;;;-144.67;100.00
47522;BME280;32291;52.010;4.446;2023-05-01T04:30:48;78698.63;;;-144.67;100.00
47522;BME280;32291;52.010;4.446;2023-05-01T04:31:50;78702.91;;;-144.67;100.00
47522;BME280;32291;52.010;4.446;2023-05-01T04:32:52;78702.91;;;-144.67;100.00
47522;BME280;32291;52.010;4.446;2023-05-01T04:33:55;78694.34;;;-144.67;100.00
47522;BME280;32291;52.010;4.446;2023-05-01T04:34:56;78694.34;;;-144.67;100.00
47522;BME280;32291;52.010;4.446;2023-05-01T04:35:58;78690.06;;;-144.67;100.00
47522;BME280;32291;52.010;4.446;2023-05-01T04:37:00;78694.34;;;-144.67;100.00
47522;BME280;32291;52.010;4.446;2023-05-01T04:38:04;78685.78;;;-144.67;100.00
47522;BME280;32291;52.010;4.446;2023-05-01T04:39:06;78683.63;;;-144.67;100.00
47522;BME280;32291;52.010;4.446;2023-05-01T04:40:08;78681.50;;;-144.67;100.00
47522;BME280;32291;52.010;4.446;2023-05-01T04:41:10;78677.22;;;-144.67;100.00
47522;BME280;32291;52.010;4.446;2023-05-01T04:42:11;78677.22;;;-144.67;100.00
47522;BME280;32291;52.010;4.446;2023-05-01T04:43:13;78668.66;;;-144.67;100.00
47522;BME280;32291;52.010;4.446;2023-05-01T04:44:15;78672.94;;;-144.67;100.00
47522;BME280;32291;52.010;4.446;2023-05-01T04:45:17;78668.66;;;-144.67;100.00
47522;BME280;32291;52.010;4.446;2023-05-01T04:46:19;78670.78;;;-144.67;100.00
47522;BME280;32291;52.010;4.446;2023-05-01T04:47:21;78677.22;;;-144.67;100.00
47522;BME280;32291;52.010;4.446;2023-05-01T04:48:23;78670.78;;;-144.67;100.00
47522;BME280;32291;52.010;4.446;2023-05-01T04:49:24;78672.94;;;-144.67;100.00
47522;BME280;32291;52.010;4.446;2023-05-01T04:50:26;78666.50;;;-144.67;100.00
47522;BME280;32291;52.010;4.446;2023-05-01T04:51:28;78660.09;;;-144.67;100.00
47522;BME280;32291;52.010;4.446;2023-05-01T04:52:29;78655.81;;;-144.67;100.00
47522;BME280;32291;52.010;4.446;2023-05-01T04:53:31;78660.09;;;-144.67;100.00
47522;BME280;32291;52.010;4.446;2023-05-01T04:54:34;78655.81;;;-144.67;100.00
47522;BME280;32291;52.010;4.446;2023-05-01T04:55:36;78660.09;;;-144.67;100.00
47522;BME280;32291;52.010;4.446;2023-05-01T04:56:38;78651.53;;;-144.67;100.00
47522;BME280;32291;52.010;4.446;2023-05-01T04:57:40;78647.22;;;-144.67;100.00
47522;BME280;32291;52.010;4.446;2023-05-01T04:58:41;78647.22;;;-144.67;100.00
47522;BME280;32291;52.010;4.446;2023-05-01T04:59:43;78645.09;;;-144.67;100.00
47522;BME280;32291;52.010;4.446;2023-05-01T05:00:45;78634.38;;;-144.67;100.00
47522;BME280;32291;52.010;4.446;2023-05-01T05:01:46;78632.25;;;-144.67;100.00
47522;BME280;32291;52.010;4.446;2023-05-01T05:02:48;78625.81;;;-144.67;100.00
47522;BME280;32291;52.010;4.446;2023-05-01T05:03:50;78625.81;;;-144.67;100.00
47522;BME280;32291;52.010;4.446;2023-05-01T05:04:51;78623.69;;;-144.67;100.00
47522;BME280;32291;52.010;4.446;2023-05-01T05:05:57;78610.84;;;-144.67;100.00
47522;BME280;32291;52.010;4.446;2023-05-01T05:06:58;78612.97;;;-144.67;100.00
47522;BME280;32291;52.010;4.446;2023-05-01T05:08:00;78612.97;;;-144.67;100.00
47522;BME280;32291;52.010;4.446;2023-05-01T05:09:02;78608.69;;;-144.67;100.00
47522;BME280;32291;52.010;4.446;2023-05-01T05:10:04;78600.13;;;-144.67;100.00
47522;BME280;32291;52.010;4.446;2023-05-01T05:11:07;78591.56;;;-144.67;100.00
47522;BME280;32291;52.010;4.446;2023-05-01T05:12:09;78589.41;;;-144.67;100.00
47522;BME280;32291;52.010;4.446;2023-05-01T05:13:11;78578.72;;;-144.67;100.00
47522;BME280;32291;52.010;4.446;2023-05-01T05:14:13;78572.28;;;-144.67;100.00
47522;BME280;32291;52.010;4.446;2023-05-01T05:15:15;78568.00;;;-144.67;100.00
47522;BME280;32291;52.010;4.446;2023-05-01T05:16:17;78559.44;;;-144.67;100.00
47522;BME280;32291;52.010;4.446;2023-05-01T05:17:18;78553.03;;;-144.67;100.00
47522;BME280;32291;52.010;4.446;2023-05-01T05:18:20;78559.44;;;-144.67;100.00
47522;BME280;32291;52.010;4.446;2023-05-01T05:19:23;78550.88;;;-144.67;100.00
47522;BME280;32291;52.010;4.446;2023-05-01T05:20:24;78544.47;;;-144.67;100.00
47522;BME280;32291;52.010;4.446;2023-05-01T05:21:26;78542.31;;;-144.67;100.00
47522;BME280;32291;52.010;4.446;2023-05-01T05:22:27;78540.19;;;-144.67;100.00
47522;BME280;32291;52.010;4.446;2023-05-01T05:23:29;78531.63;;;-144.67;100.00
47522;BME280;32291;52.010;4.446;2023-05-01T05:24:31;78529.47;;;-144.67;100.00
47522;BME280;32291;52.010;4.446;2023-05-01T05:25:33;78520.91;;;-144.67;100.00
47522;BME280;32291;52.010;4.446;2023-05-01T05:26:35;78514.47;;;-144.67;100.00
47522;BME280;32291;52.010;4.446;2023-05-01T05:27:37;78514.47;;;-144.67;100.00
47522;BME280;32291;52.010;4.446;2023-05-01T05:28:39;78514.47;;;-144.67;100.00
47522;BME280;32291;52.010;4.446;2023-05-01T05:29:41;78505.91;;;-144.67;100.00
47522;BME280;32291;52.010;4.446;2023-05-01T05:30:42;78503.78;;;-144.67;100.00
47522;BME280;32291;52.010;4.446;2023-05-01T05:31:44;78495.22;;;-144.67;100.00
47522;BME280;32291;52.010;4.446;2023-05-01T05:32:46;78493.06;;;-144.67;100.00
47522;BME280;32291;52.010;4.446;2023-05-01T05:33:48;78488.78;;;-144.67;100.00
47522;BME280;32291;52.010;4.446;2023-05-01T05:34:50;78480.22;;;-144.67;100.00
47522;BME280;32291;52.010;4.446;2023-05-01T05:35:52;78480.22;;;-144.67;100.00
47522;BME280;32291;52.010;4.446;2023-05-01T05:36:53;78480.22;;;-144.67;100.00
47522;BME280;32291;52.010;4.446;2023-05-01T05:37:55;78467.38;;;-144.67;100.00
47522;BME280;32291;52.010;4.446;2023-05-01T05:38:58;78465.25;;;-144.67;100.00
47522;BME280;32291;52.010;4.446;2023-05-01T05:39:59;78463.09;;;-144.67;100.00
47522;BME280;32291;52.010;4.446;2023-05-01T05:41:01;78454.53;;;-144.67;100.00